sensor_id;sensor_type;location;lat;lon;timestamp;temperature;humidity
75105;DHT22;64778;47.314;8.466;2022-11-15T00:00:46;6.50;87.80
75105;DHT22;64778;47.314;8.466;2022-11-15T00:03:17;6.50;88.00
75105;DHT22;64778;47.314;8.466;2022-11-15T00:05:43;6.40;87.90
75105;DHT22;64778;47.314;8.466;2022-11-15T00:08:14;6.40;87.80
75105;DHT22;64778;47.314;8.466;2022-11-15T00:10:40;6.40;88.10
75105;DHT22;64778;47.314;8.466;2022-11-15T00:13:12;6.30;88.20
75105;DHT22;64778;47.314;8.466;2022-11-15T00:15:43;6.30;88.20
75105;DHT22;64778;47.314;8.466;2022-11-15T00:18:13;6.30;88.70
75105;DHT22;64778;47.314;8.466;2022-11-15T00:20:39;6.20;88.60
75105;DHT22;64778;47.314;8.466;2022-11-15T00:23:05;6.20;88.50
75105;DHT22;64778;47.314;8.466;2022-11-15T00:25:34;6.10;88.60
75105;DHT22;64778;47.314;8.466;2022-11-15T00:28:02;6.20;88.70
75105;DHT22;64778;47.314;8.466;2022-11-15T00:30:28;6.20;88.50
75105;DHT22;64778;47.314;8.466;2022-11-15T00:32:56;6.20;88.80
75105;DHT22;64778;47.314;8.466;2022-11-15T00:35:21;6.10;90.10
75105;DHT22;64778;47.314;8.466;2022-11-15T00:37:47;6.10;90.00
75105;DHT22;64778;47.314;8.466;2022-11-15T00:40:16;6.10;89.80
75105;DHT22;64778;47.314;8.466;2022-11-15T00:42:41;6.20;89.60
75105;DHT22;64778;47.314;8.466;2022-11-15T00:45:10;6.20;89.40
75105;DHT22;64778;47.314;8.466;2022-11-15T00:47:38;6.30;89.20
75105;DHT22;64778;47.314;8.466;2022-11-15T00:50:04;6.30;89.10
75105;DHT22;64778;47.314;8.466;2022-11-15T00:52:29;6.40;89.10
75105;DHT22;64778;47.314;8.466;2022-11-15T00:54:57;6.40;89.10
75105;DHT22;64778;47.314;8.466;2022-11-15T00:57:23;6.40;89.00
75105;DHT22;64778;47.314;8.466;2022-11-15T00:59:51;6.50;89.20
75105;DHT22;64778;47.314;8.466;2022-11-15T01:02:16;6.50;89.10
75105;DHT22;64778;47.314;8.466;2022-11-15T01:04:42;6.50;89.10
75105;DHT22;64778;47.314;8.466;2022-11-15T01:07:07;6.60;89.20
75105;DHT22;64778;47.314;8.466;2022-11-15T01:09:33;6.60;89.20
75105;DHT22;64778;47.314;8.466;2022-11-15T01:11:58;6.70;89.30
75105;DHT22;64778;47.314;8.466;2022-11-15T01:14:26;6.70;89.30
75105;DHT22;64778;47.314;8.466;2022-11-15T01:16:55;6.70;89.30
75105;DHT22;64778;47.314;8.466;2022-11-15T01:19:20;6.80;89.10
75105;DHT22;64778;47.314;8.466;2022-11-15T01:21:48;6.80;89.10
75105;DHT22;64778;47.314;8.466;2022-11-15T01:24:16;6.70;89.10
75105;DHT22;64778;47.314;8.466;2022-11-15T01:26:42;6.80;89.10
75105;DHT22;64778;47.314;8.466;2022-11-15T01:29:08;6.80;89.00
75105;DHT22;64778;47.314;8.466;2022-11-15T01:31:33;6.80;89.20
75105;DHT22;64778;47.314;8.466;2022-11-15T01:34:01;6.80;89.00
75105;DHT22;64778;47.314;8.466;2022-11-15T01:36:27;6.80;88.70
75105;DHT22;64778;47.314;8.466;2022-11-15T01:39:00;6.80;88.70
75105;DHT22;64778;47.314;8.466;2022-11-15T01:41:32;6.80;88.70
75105;DHT22;64778;47.314;8.466;2022-11-15T01:47:02;6.80;88.80
75105;DHT22;64778;47.314;8.466;2022-11-15T01:49:30;6.90;88.60
75105;DHT22;64778;47.314;8.466;2022-11-15T01:51:58;6.90;88.50
75105;DHT22;64778;47.314;8.466;2022-11-15T01:54:26;6.90;88.50
75105;DHT22;64778;47.314;8.466;2022-11-15T01:57:07;6.90;88.50
75105;DHT22;64778;47.314;8.466;2022-11-15T01:59:38;7.00;88.50
75105;DHT22;64778;47.314;8.466;2022-11-15T02:02:04;6.90;88.60
75105;DHT22;64778;47.314;8.466;2022-11-15T02:04:34;7.00;88.60
75105;DHT22;64778;47.314;8.466;2022-11-15T02:07:03;7.00;88.90
75105;DHT22;64778;47.314;8.466;2022-11-15T02:09:29;6.90;89.40
75105;DHT22;64778;47.314;8.466;2022-11-15T02:11:55;6.90;89.60
75105;DHT22;64778;47.314;8.466;2022-11-15T02:14:22;6.90;90.00
75105;DHT22;64778;47.314;8.466;2022-11-15T02:16:58;6.90;89.60
75105;DHT22;64778;47.314;8.466;2022-11-15T02:38:59;6.90;90.00
75105;DHT22;64778;47.314;8.466;2022-11-15T02:44:19;7.00;89.30
75105;DHT22;64778;47.314;8.466;2022-11-15T02:47:06;7.00;89.30
75105;DHT22;64778;47.314;8.466;2022-11-15T02:49:46;7.00;89.30
75105;DHT22;64778;47.314;8.466;2022-11-15T02:52:16;7.00;89.30
75105;DHT22;64778;47.314;8.466;2022-11-15T02:55:01;7.00;89.40
75105;DHT22;64778;47.314;8.466;2022-11-15T03:00:34;7.00;88.60
75105;DHT22;64778;47.314;8.466;2022-11-15T03:06:05;7.00;88.50
75105;DHT22;64778;47.314;8.466;2022-11-15T03:08:44;6.90;88.70
75105;DHT22;64778;47.314;8.466;2022-11-15T03:11:18;6.90;88.60
75105;DHT22;64778;47.314;8.466;2022-11-15T03:19:00;6.90;89.50
75105;DHT22;64778;47.314;8.466;2022-11-15T03:21:28;7.00;89.30
75105;DHT22;64778;47.314;8.466;2022-11-15T03:24:01;7.00;89.10
75105;DHT22;64778;47.314;8.466;2022-11-15T03:26:29;7.00;89.10
75105;DHT22;64778;47.314;8.466;2022-11-15T03:29:03;7.10;89.20
75105;DHT22;64778;47.314;8.466;2022-11-15T03:31:36;7.10;89.30
75105;DHT22;64778;47.314;8.466;2022-11-15T03:34:18;7.10;89.30
75105;DHT22;64778;47.314;8.466;2022-11-15T03:36:48;7.10;89.40
75105;DHT22;64778;47.314;8.466;2022-11-15T03:39:20;7.10;89.80
75105;DHT22;64778;47.314;8.466;2022-11-15T03:41:52;7.00;90.00
75105;DHT22;64778;47.314;8.466;2022-11-15T03:46:53;6.80;90.10
75105;DHT22;64778;47.314;8.466;2022-11-15T03:49:31;6.80;90.20
75105;DHT22;64778;47.314;8.466;2022-11-15T03:52:03;6.70;90.20
75105;DHT22;64778;47.314;8.466;2022-11-15T03:54:29;6.60;90.30
75105;DHT22;64778;47.314;8.466;2022-11-15T03:56:55;6.60;90.50
75105;DHT22;64778;47.314;8.466;2022-11-15T03:59:23;6.50;90.50
75105;DHT22;64778;47.314;8.466;2022-11-15T04:01:48;6.50;90.50
75105;DHT22;64778;47.314;8.466;2022-11-15T04:04:16;6.50;90.40
75105;DHT22;64778;47.314;8.466;2022-11-15T04:06:42;6.50;90.40
75105;DHT22;64778;47.314;8.466;2022-11-15T04:09:07;6.50;90.30
75105;DHT22;64778;47.314;8.466;2022-11-15T04:11:33;6.40;90.40
75105;DHT22;64778;47.314;8.466;2022-11-15T04:14:01;6.30;90.30
75105;DHT22;64778;47.314;8.466;2022-11-15T04:16:28;6.30;90.20
75105;DHT22;64778;47.314;8.466;2022-11-15T04:18:54;6.30;90.10
75105;DHT22;64778;47.314;8.466;2022-11-15T04:21:38;6.30;90.00
75105;DHT22;64778;47.314;8.466;2022-11-15T04:24:22;6.20;90.00
75105;DHT22;64778;47.314;8.466;2022-11-15T04:26:50;6.20;89.90
75105;DHT22;64778;47.314;8.466;2022-11-15T04:29:18;6.20;89.90
75105;DHT22;64778;47.314;8.466;2022-11-15T04:31:59;6.20;89.90
75105;DHT22;64778;47.314;8.466;2022-11-15T04:34:25;6.20;89.80
75105;DHT22;64778;47.314;8.466;2022-11-15T04:36:53;6.10;89.60
75105;DHT22;64778;47.314;8.466;2022-11-15T04:39:39;6.10;89.50
75105;DHT22;64778;47.314;8.466;2022-11-15T04:42:05;6.10;89.20
75105;DHT22;64778;47.314;8.466;2022-11-15T04:44:31;6.10;89.20
75105;DHT22;64778;47.314;8.466;2022-11-15T04:46:59;6.20;89.00
75105;DHT22;64778;47.314;8.466;2022-11-15T04:49:24;6.10;88.80
75105;DHT22;64778;47.314;8.466;2022-11-15T04:51:50;6.10;88.90
75105;DHT22;64778;47.314;8.466;2022-11-15T04:54:15;6.20;88.80
75105;DHT22;64778;47.314;8.466;2022-11-15T04:56:42;6.20;89.00
75105;DHT22;64778;47.314;8.466;2022-11-15T04:59:07;6.20;89.10
75105;DHT22;64778;47.314;8.466;2022-11-15T05:01:33;6.10;89.60
75105;DHT22;64778;47.314;8.466;2022-11-15T05:04:01;6.20;89.40
75105;DHT22;64778;47.314;8.466;2022-11-15T05:06:47;6.20;89.60
75105;DHT22;64778;47.314;8.466;2022-11-15T05:09:12;6.20;89.70
75105;DHT22;64778;47.314;8.466;2022-11-15T05:11:39;6.10;89.80
75105;DHT22;64778;47.314;8.466;2022-11-15T05:14:05;6.20;89.80
75105;DHT22;64778;47.314;8.466;2022-11-15T05:16:35;6.20;89.70
75105;DHT22;64778;47.314;8.466;2022-11-15T05:19:07;6.20;89.70
75105;DHT22;64778;47.314;8.466;2022-11-15T05:21:37;6.20;89.80
75105;DHT22;64778;47.314;8.466;2022-11-15T05:24:04;6.20;89.90
75105;DHT22;64778;47.314;8.466;2022-11-15T05:26:30;6.20;89.70
75105;DHT22;64778;47.314;8.466;2022-11-15T05:28:56;6.20;89.70
75105;DHT22;64778;47.314;8.466;2022-11-15T05:31:22;6.30;89.70
75105;DHT22;64778;47.314;8.466;2022-11-15T05:33:48;6.30;89.70
75105;DHT22;64778;47.314;8.466;2022-11-15T05:36:22;6.30;89.70
75105;DHT22;64778;47.314;8.466;2022-11-15T05:38:50;6.30;89.60
75105;DHT22;64778;47.314;8.466;2022-11-15T05:41:22;6.30;89.60
75105;DHT22;64778;47.314;8.466;2022-11-15T05:43:54;6.30;89.50
75105;DHT22;64778;47.314;8.466;2022-11-15T05:46:19;6.30;89.50
75105;DHT22;64778;47.314;8.466;2022-11-15T05:48:48;6.40;89.10
75105;DHT22;64778;47.314;8.466;2022-11-15T05:51:15;6.40;89.10
75105;DHT22;64778;47.314;8.466;2022-11-15T05:53:45;6.40;89.30
75105;DHT22;64778;47.314;8.466;2022-11-15T05:56:11;6.40;89.30
75105;DHT22;64778;47.314;8.466;2022-11-15T05:58:40;6.40;89.20
75105;DHT22;64778;47.314;8.466;2022-11-15T06:01:07;6.30;89.30
75105;DHT22;64778;47.314;8.466;2022-11-15T06:03:32;6.30;89.50
75105;DHT22;64778;47.314;8.466;2022-11-15T06:05:58;6.30;89.70
75105;DHT22;64778;47.314;8.466;2022-11-15T06:08:23;6.30;89.70
75105;DHT22;64778;47.314;8.466;2022-11-15T06:10:49;6.30;89.60
75105;DHT22;64778;47.314;8.466;2022-11-15T06:13:14;6.30;89.60
75105;DHT22;64778;47.314;8.466;2022-11-15T06:15:40;6.30;89.50
75105;DHT22;64778;47.314;8.466;2022-11-15T06:18:06;6.30;89.40
75105;DHT22;64778;47.314;8.466;2022-11-15T06:20:31;6.30;89.40
75105;DHT22;64778;47.314;8.466;2022-11-15T06:23:00;6.30;89.50
75105;DHT22;64778;47.314;8.466;2022-11-15T06:25:27;6.30;89.50
75105;DHT22;64778;47.314;8.466;2022-11-15T06:27:56;6.30;89.60
75105;DHT22;64778;47.314;8.466;2022-11-15T06:30:24;6.30;89.50
75105;DHT22;64778;47.314;8.466;2022-11-15T06:32:49;6.30;89.50
75105;DHT22;64778;47.314;8.466;2022-11-15T06:35:15;6.30;89.40
75105;DHT22;64778;47.314;8.466;2022-11-15T06:37:41;6.30;89.30
75105;DHT22;64778;47.314;8.466;2022-11-15T06:40:07;6.30;89.30
75105;DHT22;64778;47.314;8.466;2022-11-15T06:42:35;6.40;89.30
75105;DHT22;64778;47.314;8.466;2022-11-15T06:45:01;6.40;89.00
75105;DHT22;64778;47.314;8.466;2022-11-15T06:47:29;6.40;89.00
75105;DHT22;64778;47.314;8.466;2022-11-15T06:49:54;6.50;88.80
75105;DHT22;64778;47.314;8.466;2022-11-15T06:52:23;6.50;89.10
75105;DHT22;64778;47.314;8.466;2022-11-15T06:54:48;6.60;89.10
75105;DHT22;64778;47.314;8.466;2022-11-15T06:57:14;6.60;89.00
75105;DHT22;64778;47.314;8.466;2022-11-15T06:59:39;6.70;89.10
75105;DHT22;64778;47.314;8.466;2022-11-15T07:02:05;6.70;89.00
75105;DHT22;64778;47.314;8.466;2022-11-15T07:04:31;6.80;88.90
75105;DHT22;64778;47.314;8.466;2022-11-15T07:06:56;6.90;88.90
75105;DHT22;64778;47.314;8.466;2022-11-15T07:09:22;7.00;88.70
75105;DHT22;64778;47.314;8.466;2022-11-15T07:11:47;7.00;88.90
75105;DHT22;64778;47.314;8.466;2022-11-15T07:14:15;7.00;89.10
75105;DHT22;64778;47.314;8.466;2022-11-15T07:16:43;7.00;88.80
75105;DHT22;64778;47.314;8.466;2022-11-15T07:19:09;7.10;88.60
75105;DHT22;64778;47.314;8.466;2022-11-15T07:21:34;7.20;88.10
75105;DHT22;64778;47.314;8.466;2022-11-15T07:24:00;7.20;88.20
75105;DHT22;64778;47.314;8.466;2022-11-15T07:26:28;7.00;89.00
75105;DHT22;64778;47.314;8.466;2022-11-15T07:28:54;7.00;89.60
75105;DHT22;64778;47.314;8.466;2022-11-15T07:31:19;7.10;89.40
75105;DHT22;64778;47.314;8.466;2022-11-15T07:33:45;7.20;89.10
75105;DHT22;64778;47.314;8.466;2022-11-15T07:36:13;7.40;88.20
75105;DHT22;64778;47.314;8.466;2022-11-15T07:38:38;7.30;88.20
75105;DHT22;64778;47.314;8.466;2022-11-15T07:41:05;7.50;88.20
75105;DHT22;64778;47.314;8.466;2022-11-15T07:43:31;7.70;88.30
75105;DHT22;64778;47.314;8.466;2022-11-15T07:46:05;7.90;87.60
75105;DHT22;64778;47.314;8.466;2022-11-15T07:48:31;8.20;87.10
75105;DHT22;64778;47.314;8.466;2022-11-15T07:50:56;8.10;85.50
75105;DHT22;64778;47.314;8.466;2022-11-15T07:53:22;8.20;86.00
75105;DHT22;64778;47.314;8.466;2022-11-15T07:55:47;8.50;85.40
75105;DHT22;64778;47.314;8.466;2022-11-15T07:58:13;8.70;85.00
75105;DHT22;64778;47.314;8.466;2022-11-15T08:00:41;8.80;84.40
75105;DHT22;64778;47.314;8.466;2022-11-15T08:03:08;9.00;84.20
75105;DHT22;64778;47.314;8.466;2022-11-15T08:05:35;9.00;84.40
75105;DHT22;64778;47.314;8.466;2022-11-15T08:08:01;9.20;84.10
75105;DHT22;64778;47.314;8.466;2022-11-15T08:10:29;9.10;84.00
75105;DHT22;64778;47.314;8.466;2022-11-15T08:13:02;9.10;83.40
75105;DHT22;64778;47.314;8.466;2022-11-15T08:15:31;9.10;83.40
75105;DHT22;64778;47.314;8.466;2022-11-15T08:18:01;8.80;84.40
75105;DHT22;64778;47.314;8.466;2022-11-15T08:20:28;8.60;85.40
75105;DHT22;64778;47.314;8.466;2022-11-15T08:23:01;8.70;85.20
75105;DHT22;64778;47.314;8.466;2022-11-15T08:25:29;8.40;85.60
75105;DHT22;64778;47.314;8.466;2022-11-15T08:28:00;8.70;85.90
75105;DHT22;64778;47.314;8.466;2022-11-15T08:30:29;8.60;85.60
75105;DHT22;64778;47.314;8.466;2022-11-15T08:33:00;8.80;85.70
75105;DHT22;64778;47.314;8.466;2022-11-15T08:35:26;9.00;85.50
75105;DHT22;64778;47.314;8.466;2022-11-15T08:37:52;9.10;85.50
75105;DHT22;64778;47.314;8.466;2022-11-15T08:40:21;9.00;84.70
75105;DHT22;64778;47.314;8.466;2022-11-15T08:42:47;8.80;86.60
75105;DHT22;64778;47.314;8.466;2022-11-15T08:45:14;9.00;86.40
75105;DHT22;64778;47.314;8.466;2022-11-15T08:47:42;9.20;85.50
75105;DHT22;64778;47.314;8.466;2022-11-15T08:50:10;9.50;84.70
75105;DHT22;64778;47.314;8.466;2022-11-15T08:52:35;9.40;85.20
75105;DHT22;64778;47.314;8.466;2022-11-15T08:55:01;9.30;85.60
75105;DHT22;64778;47.314;8.466;2022-11-15T08:57:29;9.30;86.40
75105;DHT22;64778;47.314;8.466;2022-11-15T08:59:56;9.30;86.80
75105;DHT22;64778;47.314;8.466;2022-11-15T09:02:21;9.30;86.80
75105;DHT22;64778;47.314;8.466;2022-11-15T09:04:49;9.10;87.90
75105;DHT22;64778;47.314;8.466;2022-11-15T09:07:15;8.90;88.80
75105;DHT22;64778;47.314;8.466;2022-11-15T09:09:40;9.10;88.00
75105;DHT22;64778;47.314;8.466;2022-11-15T09:12:07;9.10;87.40
75105;DHT22;64778;47.314;8.466;2022-11-15T09:14:35;9.20;86.90
75105;DHT22;64778;47.314;8.466;2022-11-15T09:17:06;9.20;86.20
75105;DHT22;64778;47.314;8.466;2022-11-15T09:19:32;9.30;85.10
75105;DHT22;64778;47.314;8.466;2022-11-15T09:22:00;9.40;85.60
75105;DHT22;64778;47.314;8.466;2022-11-15T09:24:25;9.60;85.30
75105;DHT22;64778;47.314;8.466;2022-11-15T09:26:51;9.80;85.50
75105;DHT22;64778;47.314;8.466;2022-11-15T09:29:19;10.00;84.40
75105;DHT22;64778;47.314;8.466;2022-11-15T09:31:47;10.10;82.40
75105;DHT22;64778;47.314;8.466;2022-11-15T09:34:13;10.00;84.50
75105;DHT22;64778;47.314;8.466;2022-11-15T09:36:38;9.80;84.90
75105;DHT22;64778;47.314;8.466;2022-11-15T09:39:04;9.50;86.10
75105;DHT22;64778;47.314;8.466;2022-11-15T09:44:47;9.40;87.70
75105;DHT22;64778;47.314;8.466;2022-11-15T09:47:42;9.50;86.80
75105;DHT22;64778;47.314;8.466;2022-11-15T09:50:14;9.80;85.90
75105;DHT22;64778;47.314;8.466;2022-11-15T09:52:46;9.80;85.70
75105;DHT22;64778;47.314;8.466;2022-11-15T09:55:15;9.50;86.40
75105;DHT22;64778;47.314;8.466;2022-11-15T09:58:18;9.40;87.30
75105;DHT22;64778;47.314;8.466;2022-11-15T10:00:48;9.70;86.50
75105;DHT22;64778;47.314;8.466;2022-11-15T10:05:52;10.20;85.20
75105;DHT22;64778;47.314;8.466;2022-11-15T10:08:37;10.40;83.00
75105;DHT22;64778;47.314;8.466;2022-11-15T10:11:10;10.50;83.20
75105;DHT22;64778;47.314;8.466;2022-11-15T10:13:43;10.60;82.60
75105;DHT22;64778;47.314;8.466;2022-11-15T10:24:44;10.20;83.20
75105;DHT22;64778;47.314;8.466;2022-11-15T10:27:15;10.20;84.30
75105;DHT22;64778;47.314;8.466;2022-11-15T10:29:46;10.20;84.80
75105;DHT22;64778;47.314;8.466;2022-11-15T10:32:17;10.00;85.60
75105;DHT22;64778;47.314;8.466;2022-11-15T10:34:43;9.80;85.80
75105;DHT22;64778;47.314;8.466;2022-11-15T10:37:09;9.60;86.80
75105;DHT22;64778;47.314;8.466;2022-11-15T10:39:39;9.50;88.20
75105;DHT22;64778;47.314;8.466;2022-11-15T10:42:16;9.50;88.20
75105;DHT22;64778;47.314;8.466;2022-11-15T10:44:45;9.40;88.90
75105;DHT22;64778;47.314;8.466;2022-11-15T10:47:31;9.60;88.60
75105;DHT22;64778;47.314;8.466;2022-11-15T10:50:01;9.70;90.30
75105;DHT22;64778;47.314;8.466;2022-11-15T10:52:29;9.80;87.70
75105;DHT22;64778;47.314;8.466;2022-11-15T10:55:00;9.70;88.20
75105;DHT22;64778;47.314;8.466;2022-11-15T10:57:31;9.20;89.80
75105;DHT22;64778;47.314;8.466;2022-11-15T11:00:00;9.30;90.00
75105;DHT22;64778;47.314;8.466;2022-11-15T11:02:45;9.30;90.10
75105;DHT22;64778;47.314;8.466;2022-11-15T11:05:43;9.50;89.70
75105;DHT22;64778;47.314;8.466;2022-11-15T11:10:37;9.80;88.80
75105;DHT22;64778;47.314;8.466;2022-11-15T11:13:40;10.00;88.50
75105;DHT22;64778;47.314;8.466;2022-11-15T11:18:59;10.40;87.00
75105;DHT22;64778;47.314;8.466;2022-11-15T11:27:18;10.90;86.40
75105;DHT22;64778;47.314;8.466;2022-11-15T11:32:56;11.10;87.00
75105;DHT22;64778;47.314;8.466;2022-11-15T11:40:37;11.00;83.80
75105;DHT22;64778;47.314;8.466;2022-11-15T11:43:08;11.10;83.80
75105;DHT22;64778;47.314;8.466;2022-11-15T11:45:49;11.10;85.70
75105;DHT22;64778;47.314;8.466;2022-11-15T11:48:35;11.00;86.70
75105;DHT22;64778;47.314;8.466;2022-11-15T11:51:26;10.80;87.40
75105;DHT22;64778;47.314;8.466;2022-11-15T11:54:09;10.50;88.20
75105;DHT22;64778;47.314;8.466;2022-11-15T11:56:39;10.40;88.00
75105;DHT22;64778;47.314;8.466;2022-11-15T11:59:42;10.50;87.90
75105;DHT22;64778;47.314;8.466;2022-11-15T12:02:37;10.40;86.60
75105;DHT22;64778;47.314;8.466;2022-11-15T12:05:11;10.40;86.80
75105;DHT22;64778;47.314;8.466;2022-11-15T12:07:39;10.00;88.70
75105;DHT22;64778;47.314;8.466;2022-11-15T12:12:54;10.00;89.20
75105;DHT22;64778;47.314;8.466;2022-11-15T12:15:25;9.80;90.00
75105;DHT22;64778;47.314;8.466;2022-11-15T12:17:51;9.90;89.70
75105;DHT22;64778;47.314;8.466;2022-11-15T12:25:21;10.10;88.80
75105;DHT22;64778;47.314;8.466;2022-11-15T12:30:24;10.30;87.70
75105;DHT22;64778;47.314;8.466;2022-11-15T12:33:00;10.40;87.70
75105;DHT22;64778;47.314;8.466;2022-11-15T12:37:55;10.80;86.40
75105;DHT22;64778;47.314;8.466;2022-11-15T12:40:39;11.00;86.30
75105;DHT22;64778;47.314;8.466;2022-11-15T12:43:39;11.20;86.00
75105;DHT22;64778;47.314;8.466;2022-11-15T12:46:05;11.20;86.50
75105;DHT22;64778;47.314;8.466;2022-11-15T12:51:01;11.50;85.30
75105;DHT22;64778;47.314;8.466;2022-11-15T12:53:31;11.50;84.80
75105;DHT22;64778;47.314;8.466;2022-11-15T13:06:59;11.60;83.00
75105;DHT22;64778;47.314;8.466;2022-11-15T13:12:09;11.40;83.80
75105;DHT22;64778;47.314;8.466;2022-11-15T13:17:43;11.60;84.20
75105;DHT22;64778;47.314;8.466;2022-11-15T13:28:22;11.90;81.30
75105;DHT22;64778;47.314;8.466;2022-11-15T13:30:54;11.90;81.80
75105;DHT22;64778;47.314;8.466;2022-11-15T13:33:24;12.00;81.50
75105;DHT22;64778;47.314;8.466;2022-11-15T13:35:55;12.10;81.30
75105;DHT22;64778;47.314;8.466;2022-11-15T13:40:49;12.40;79.60
75105;DHT22;64778;47.314;8.466;2022-11-15T13:43:38;12.30;79.20
75105;DHT22;64778;47.314;8.466;2022-11-15T13:46:11;12.30;79.90
75105;DHT22;64778;47.314;8.466;2022-11-15T13:48:37;12.00;81.40
75105;DHT22;64778;47.314;8.466;2022-11-15T13:51:47;11.80;82.10
75105;DHT22;64778;47.314;8.466;2022-11-15T13:59:28;11.90;80.00
75105;DHT22;64778;47.314;8.466;2022-11-15T14:01:58;11.90;79.50
75105;DHT22;64778;47.314;8.466;2022-11-15T14:04:28;11.90;80.60
75105;DHT22;64778;47.314;8.466;2022-11-15T14:06:59;11.90;78.90
75105;DHT22;64778;47.314;8.466;2022-11-15T14:09:54;11.90;79.80
75105;DHT22;64778;47.314;8.466;2022-11-15T14:15:02;11.80;79.80
75105;DHT22;64778;47.314;8.466;2022-11-15T14:17:43;11.80;79.40
75105;DHT22;64778;47.314;8.466;2022-11-15T14:22:54;11.80;80.10
75105;DHT22;64778;47.314;8.466;2022-11-15T14:25:22;11.70;79.20
75105;DHT22;64778;47.314;8.466;2022-11-15T14:30:37;11.50;80.50
75105;DHT22;64778;47.314;8.466;2022-11-15T14:35:49;11.50;80.60
75105;DHT22;64778;47.314;8.466;2022-11-15T14:38:17;11.50;78.50
75105;DHT22;64778;47.314;8.466;2022-11-15T14:40:43;11.50;77.80
75105;DHT22;64778;47.314;8.466;2022-11-15T14:43:12;11.40;76.50
75105;DHT22;64778;47.314;8.466;2022-11-15T14:45:39;11.40;77.00
75105;DHT22;64778;47.314;8.466;2022-11-15T14:48:05;11.40;78.60
75105;DHT22;64778;47.314;8.466;2022-11-15T14:50:31;11.30;77.70
75105;DHT22;64778;47.314;8.466;2022-11-15T14:52:57;11.30;76.00
75105;DHT22;64778;47.314;8.466;2022-11-15T14:55:27;11.40;72.50
75105;DHT22;64778;47.314;8.466;2022-11-15T14:57:59;11.40;70.90
75105;DHT22;64778;47.314;8.466;2022-11-15T15:00:27;11.40;69.00
75105;DHT22;64778;47.314;8.466;2022-11-15T15:02:53;11.40;69.60
75105;DHT22;64778;47.314;8.466;2022-11-15T15:05:22;11.40;70.10
75105;DHT22;64778;47.314;8.466;2022-11-15T15:07:51;11.40;72.30
75105;DHT22;64778;47.314;8.466;2022-11-15T15:10:19;11.40;74.20
75105;DHT22;64778;47.314;8.466;2022-11-15T15:12:44;11.40;72.70
75105;DHT22;64778;47.314;8.466;2022-11-15T15:15:29;11.40;72.90
75105;DHT22;64778;47.314;8.466;2022-11-15T15:17:56;11.30;74.80
75105;DHT22;64778;47.314;8.466;2022-11-15T15:20:24;11.20;73.60
75105;DHT22;64778;47.314;8.466;2022-11-15T15:22:52;11.20;74.10
75105;DHT22;64778;47.314;8.466;2022-11-15T15:25:26;11.10;73.80
75105;DHT22;64778;47.314;8.466;2022-11-15T15:27:55;11.10;75.50
75105;DHT22;64778;47.314;8.466;2022-11-15T15:30:22;11.10;76.00
75105;DHT22;64778;47.314;8.466;2022-11-15T15:32:51;11.10;77.40
75105;DHT22;64778;47.314;8.466;2022-11-15T15:35:17;11.00;78.50
75105;DHT22;64778;47.314;8.466;2022-11-15T15:37:47;11.00;79.30
75105;DHT22;64778;47.314;8.466;2022-11-15T15:42:41;10.60;85.10
75105;DHT22;64778;47.314;8.466;2022-11-15T15:45:07;10.40;86.10
75105;DHT22;64778;47.314;8.466;2022-11-15T15:47:33;10.40;85.90
75105;DHT22;64778;47.314;8.466;2022-11-15T15:50:01;10.30;86.60
75105;DHT22;64778;47.314;8.466;2022-11-15T15:52:27;10.30;87.40
75105;DHT22;64778;47.314;8.466;2022-11-15T15:54:52;10.20;87.80
75105;DHT22;64778;47.314;8.466;2022-11-15T15:57:20;10.20;86.90
75105;DHT22;64778;47.314;8.466;2022-11-15T15:59:46;10.20;85.90
75105;DHT22;64778;47.314;8.466;2022-11-15T16:02:11;10.20;79.50
75105;DHT22;64778;47.314;8.466;2022-11-15T16:04:37;10.30;77.50
75105;DHT22;64778;47.314;8.466;2022-11-15T16:07:03;10.40;74.50
75105;DHT22;64778;47.314;8.466;2022-11-15T16:09:32;10.60;71.00
75105;DHT22;64778;47.314;8.466;2022-11-15T16:12:16;10.90;68.30
75105;DHT22;64778;47.314;8.466;2022-11-15T16:14:42;11.00;67.90
75105;DHT22;64778;47.314;8.466;2022-11-15T16:17:21;11.20;66.90
75105;DHT22;64778;47.314;8.466;2022-11-15T16:19:47;11.20;66.90
75105;DHT22;64778;47.314;8.466;2022-11-15T16:22:15;11.40;64.60
75105;DHT22;64778;47.314;8.466;2022-11-15T16:24:41;11.50;65.00
75105;DHT22;64778;47.314;8.466;2022-11-15T16:27:11;11.40;65.00
75105;DHT22;64778;47.314;8.466;2022-11-15T16:29:40;11.40;65.40
75105;DHT22;64778;47.314;8.466;2022-11-15T16:32:05;11.40;65.20
75105;DHT22;64778;47.314;8.466;2022-11-15T16:34:33;11.30;66.30
75105;DHT22;64778;47.314;8.466;2022-11-15T16:36:59;11.30;65.20
75105;DHT22;64778;47.314;8.466;2022-11-15T16:39:25;11.40;64.30
75105;DHT22;64778;47.314;8.466;2022-11-15T16:41:53;11.40;68.50
75105;DHT22;64778;47.314;8.466;2022-11-15T16:44:20;11.30;70.10
75105;DHT22;64778;47.314;8.466;2022-11-15T16:46:47;11.10;72.10
75105;DHT22;64778;47.314;8.466;2022-11-15T16:49:17;11.10;70.20
75105;DHT22;64778;47.314;8.466;2022-11-15T16:51:48;11.00;69.40
75105;DHT22;64778;47.314;8.466;2022-11-15T16:54:14;11.00;71.10
75105;DHT22;64778;47.314;8.466;2022-11-15T16:56:43;11.00;70.20
75105;DHT22;64778;47.314;8.466;2022-11-15T16:59:14;11.00;72.00
75105;DHT22;64778;47.314;8.466;2022-11-15T17:01:43;10.90;73.80
75105;DHT22;64778;47.314;8.466;2022-11-15T17:04:16;10.80;75.00
75105;DHT22;64778;47.314;8.466;2022-11-15T17:06:49;10.70;76.20
75105;DHT22;64778;47.314;8.466;2022-11-15T17:09:23;10.70;78.20
75105;DHT22;64778;47.314;8.466;2022-11-15T17:11:49;10.70;80.30
75105;DHT22;64778;47.314;8.466;2022-11-15T17:14:16;10.50;82.60
75105;DHT22;64778;47.314;8.466;2022-11-15T17:16:42;10.30;83.10
75105;DHT22;64778;47.314;8.466;2022-11-15T17:19:20;10.30;83.40
75105;DHT22;64778;47.314;8.466;2022-11-15T17:21:46;10.20;84.50
75105;DHT22;64778;47.314;8.466;2022-11-15T17:24:14;10.20;85.40
75105;DHT22;64778;47.314;8.466;2022-11-15T17:26:41;10.20;86.00
75105;DHT22;64778;47.314;8.466;2022-11-15T17:29:10;10.10;86.30
75105;DHT22;64778;47.314;8.466;2022-11-15T17:31:35;10.20;86.20
75105;DHT22;64778;47.314;8.466;2022-11-15T17:34:05;10.10;85.50
75105;DHT22;64778;47.314;8.466;2022-11-15T17:36:33;10.20;85.30
75105;DHT22;64778;47.314;8.466;2022-11-15T17:38:59;10.20;85.20
75105;DHT22;64778;47.314;8.466;2022-11-15T17:41:25;10.20;85.30
75105;DHT22;64778;47.314;8.466;2022-11-15T17:43:51;10.10;85.50
75105;DHT22;64778;47.314;8.466;2022-11-15T17:46:18;10.10;86.10
75105;DHT22;64778;47.314;8.466;2022-11-15T17:48:46;10.00;86.70
75105;DHT22;64778;47.314;8.466;2022-11-15T17:51:16;10.00;87.10
75105;DHT22;64778;47.314;8.466;2022-11-15T17:53:44;9.90;87.50
75105;DHT22;64778;47.314;8.466;2022-11-15T17:56:12;9.90;87.70
75105;DHT22;64778;47.314;8.466;2022-11-15T17:58:38;9.90;87.90
75105;DHT22;64778;47.314;8.466;2022-11-15T18:03:34;9.80;88.00
75105;DHT22;64778;47.314;8.466;2022-11-15T18:06:00;9.80;88.20
75105;DHT22;64778;47.314;8.466;2022-11-15T18:08:28;9.80;88.20
75105;DHT22;64778;47.314;8.466;2022-11-15T18:11:04;9.80;88.20